Time,TemperatureF,DewpointF,PressureIn,WindDirection,WindDirectionDegrees,WindSpeedMPH,WindSpeedGustMPH,Humidity,HourlyPrecipIn,Conditions,Clouds,dailyrainin,SoftwareType,DateUTC
2013-07-10 00:00:00,57.6,55.0,28.82,SSW,202,0.0,0.0,91,0.00,,CLR,0.00,VWS V14.01,2013-07-10 07:00:00,
2013-07-10 00:05:00,57.2,54.3,28.82,WNW,292,0.0,0.0,90,0.00,,CLR,0.00,VWS V14.01,2013-07-10 07:05:00,
2013-07-10 00:10:00,57.2,54.6,28.82,NW,315,0.0,0.0,91,0.00,,CLR,0.00,VWS V14.01,2013-07-10 07:10:00,
2013-07-10 00:15:00,56.8,54.5,28.82,NW,315,0.0,0.0,92,0.00,,CLR,0.00,VWS V14.01,2013-07-10 07:15:00,
2013-07-10 00:20:00,56.7,54.4,28.82,NW,315,0.0,0.0,92,0.00,,CLR,0.00,VWS V14.01,2013-07-10 07:20:00,
2013-07-10 00:25:00,56.3,54.0,28.82,NW,315,0.0,0.0,92,0.00,,CLR,0.00,VWS V14.01,2013-07-10 07:25:00,
2013-07-10 00:30:00,56.1,53.8,28.82,WSW,248,0.0,0.0,92,0.00,,CLR,0.00,VWS V14.01,2013-07-10 07:30:00,
2013-07-10 00:35:00,55.9,53.7,28.82,WSW,248,0.0,0.0,92,0.00,,CLR,0.00,VWS V14.01,2013-07-10 07:35:00,
2013-07-10 00:40:00,55.9,53.7,28.82,WSW,248,0.0,0.0,92,0.00,,CLR,0.00,VWS V14.01,2013-07-10 07:40:00,
2013-07-10 00:45:00,55.6,53.3,28.82,WSW,248,0.0,0.0,92,0.00,,CLR,0.00,VWS V14.01,2013-07-10 07:45:00,
2013-07-10 00:50:00,55.4,53.1,28.82,WSW,248,0.0,0.0,92,0.00,,CLR,0.00,VWS V14.01,2013-07-10 07:50:00,
2013-07-10 00:55:00,55.2,53.2,28.82,WSW,248,0.0,0.0,93,0.00,,CLR,0.00,VWS V14.01,2013-07-10 07:55:00,
2013-07-10 01:00:00,55.2,53.2,28.82,WSW,248,0.0,0.0,93,0.00,,CLR,0.00,VWS V14.01,2013-07-10 08:00:00,
2013-07-10 01:05:00,55.2,53.2,28.82,WSW,248,0.0,0.0,93,0.00,,CLR,0.00,VWS V14.01,2013-07-10 08:05:00,
2013-07-10 01:10:00,55.2,53.2,28.82,WSW,248,0.0,0.0,93,0.00,,CLR,0.00,VWS V14.01,2013-07-10 08:10:00,
2013-07-10 01:15:00,54.3,52.0,28.82,WSW,248,0.0,0.0,92,0.00,,CLR,0.00,VWS V14.01,2013-07-10 08:15:00,
2013-07-10 01:20:00,54.3,52.0,28.82,WSW,248,0.0,0.0,92,0.00,,CLR,0.00,VWS V14.01,2013-07-10 08:20:00,
2013-07-10 01:25:00,54.3,52.0,28.82,WSW,248,0.0,0.0,92,0.00,,CLR,0.00,VWS V14.01,2013-07-10 08:25:00,
2013-07-10 01:30:00,54.3,52.0,28.82,WSW,248,0.0,0.0,92,0.00,,CLR,0.00,VWS V14.01,2013-07-10 08:30:00,
2013-07-10 01:35:00,53.4,51.7,28.82,WSW,248,0.0,0.0,94,0.00,,CLR,0.00,VWS V14.01,2013-07-10 08:35:00,
2013-07-10 01:40:00,53.4,51.7,28.82,WSW,248,0.0,0.0,94,0.00,,CLR,0.00,VWS V14.01,2013-07-10 08:40:00,
2013-07-10 01:45:00,53.4,51.7,28.82,WSW,248,0.0,0.0,94,0.00,,CLR,0.00,VWS V14.01,2013-07-10 08:45:00,
2013-07-10 01:50:00,53.1,51.4,28.82,WSW,248,0.0,0.0,94,0.00,,CLR,0.00,VWS V14.01,2013-07-10 08:50:00,
2013-07-10 01:55:00,53.1,51.4,28.82,WSW,248,0.0,0.0,94,0.00,,CLR,0.00,VWS V14.01,2013-07-10 08:55:00,
2013-07-10 02:00:00,53.1,51.4,28.82,WSW,248,0.0,0.0,94,0.00,,CLR,0.00,VWS V14.01,2013-07-10 09:00:00,
2013-07-10 02:05:00,52.5,50.8,28.82,WSW,248,0.0,0.0,94,0.00,,,0.00,VWS V14.01,2013-07-10 09:05:00,
2013-07-10 02:10:00,52.5,50.8,28.82,WSW,248,0.0,0.0,94,0.00,,,0.00,VWS V14.01,2013-07-10 09:10:00,
2013-07-10 02:15:00,52.5,50.8,28.82,WSW,248,0.0,0.0,94,0.00,,,0.00,VWS V14.01,2013-07-10 09:15:00,
2013-07-10 02:20:00,52.2,50.5,28.82,WSW,248,0.0,0.0,94,0.00,,,0.00,VWS V14.01,2013-07-10 09:20:00,
2013-07-10 02:25:00,52.2,50.5,28.82,WSW,248,0.0,0.0,94,0.00,,,0.00,VWS V14.01,2013-07-10 09:25:00,
2013-07-10 02:30:00,52.2,50.5,28.82,WSW,248,0.0,0.0,94,0.00,,,0.00,VWS V14.01,2013-07-10 09:30:00,
2013-07-10 02:35:00,52.2,50.5,28.82,WSW,248,0.0,0.0,94,0.00,,,0.00,VWS V14.01,2013-07-10 09:35:00,
2013-07-10 02:40:00,52.2,50.5,28.82,WSW,248,0.0,0.0,94,0.00,,,0.00,VWS V14.01,2013-07-10 09:40:00,
2013-07-10 02:45:00,52.2,50.5,28.82,WSW,248,0.0,0.0,94,0.00,,,0.00,VWS V14.01,2013-07-10 09:45:00,
2013-07-10 02:50:00,52.2,50.5,28.82,WSW,248,0.0,0.0,94,0.00,,,0.00,VWS V14.01,2013-07-10 09:50:00,
2013-07-10 02:55:00,52.2,50.5,28.82,WSW,248,0.0,0.0,94,0.00,,,0.00,VWS V14.01,2013-07-10 09:55:00,
2013-07-10 03:00:00,52.2,50.5,28.82,WSW,248,0.0,0.0,94,0.00,,,0.00,VWS V14.01,2013-07-10 10:00:00,
2013-07-10 03:05:00,52.2,50.5,28.82,WSW,248,0.0,0.0,94,0.00,,CLR,0.00,VWS V14.01,2013-07-10 10:05:00,
2013-07-10 03:10:00,52.2,50.5,28.82,SSW,202,0.0,0.0,94,0.00,,CLR,0.00,VWS V14.01,2013-07-10 10:10:00,
2013-07-10 03:15:00,52.2,50.5,28.82,SSW,202,0.0,0.0,94,0.00,,CLR,0.00,VWS V14.01,2013-07-10 10:15:00,
2013-07-10 03:20:00,52.2,50.5,28.82,SSW,202,0.0,0.0,94,0.00,,CLR,0.00,VWS V14.01,2013-07-10 10:20:00,
2013-07-10 03:25:00,52.2,50.5,28.82,SSW,202,0.0,0.0,94,0.00,,CLR,0.00,VWS V14.01,2013-07-10 10:25:00,
2013-07-10 03:30:00,52.2,50.5,28.82,SSW,202,0.0,0.0,94,0.00,,CLR,0.00,VWS V14.01,2013-07-10 10:30:00,
2013-07-10 03:35:00,52.2,50.5,28.82,South,180,0.0,0.0,94,0.00,,CLR,0.00,VWS V14.01,2013-07-10 10:35:00,
2013-07-10 03:40:00,52.2,50.5,28.82,South,180,0.0,0.0,94,0.00,,CLR,0.00,VWS V14.01,2013-07-10 10:40:00,
2013-07-10 03:45:00,52.2,50.5,28.82,South,180,0.0,0.0,94,0.00,,CLR,0.00,VWS V14.01,2013-07-10 10:45:00,
2013-07-10 03:50:00,52.2,50.5,28.82,South,180,0.0,0.0,94,0.00,,CLR,0.00,VWS V14.01,2013-07-10 10:50:00,
2013-07-10 03:55:00,52.2,50.5,28.82,South,180,0.0,0.0,94,0.00,,CLR,0.00,VWS V14.01,2013-07-10 10:55:00,
2013-07-10 04:00:00,52.2,50.5,28.82,South,180,0.0,0.0,94,0.00,,CLR,0.00,VWS V14.01,2013-07-10 11:00:00,
2013-07-10 04:05:00,52.2,50.5,28.82,South,180,0.0,0.0,94,0.00,,CLR,0.00,VWS V14.01,2013-07-10 11:05:00,
2013-07-10 04:10:00,52.2,50.5,28.82,South,180,0.0,0.0,94,0.00,,CLR,0.00,VWS V14.01,2013-07-10 11:10:00,
2013-07-10 04:15:00,52.2,50.5,28.82,South,180,0.0,0.0,94,0.00,,CLR,0.00,VWS V14.01,2013-07-10 11:15:00,
2013-07-10 04:20:00,52.2,50.5,28.82,South,180,0.0,0.0,94,0.00,,CLR,0.00,VWS V14.01,2013-07-10 11:20:00,
2013-07-10 04:25:00,52.2,50.5,28.82,South,180,0.0,0.0,94,0.00,,CLR,0.00,VWS V14.01,2013-07-10 11:25:00,
2013-07-10 04:30:00,52.2,50.5,28.82,South,180,0.0,0.0,94,0.00,,CLR,0.00,VWS V14.01,2013-07-10 11:30:00,
2013-07-10 04:35:00,52.2,50.5,28.82,South,180,0.0,0.0,94,0.00,,CLR,0.00,VWS V14.01,2013-07-10 11:35:00,
2013-07-10 04:40:00,52.2,50.5,28.82,South,180,0.0,0.0,94,0.00,,CLR,0.00,VWS V14.01,2013-07-10 11:40:00,
2013-07-10 04:45:00,52.2,50.5,28.82,South,180,0.0,0.0,94,0.00,,CLR,0.00,VWS V14.01,2013-07-10 11:45:00,
2013-07-10 04:50:00,52.2,50.5,28.82,South,180,0.0,0.0,94,0.00,,CLR,0.00,VWS V14.01,2013-07-10 11:50:00,
2013-07-10 04:55:00,52.2,50.5,28.85,South,180,0.0,0.0,94,0.00,,CLR,0.00,VWS V14.01,2013-07-10 11:55:00,
2013-07-10 05:00:00,52.2,50.5,28.85,South,180,0.0,0.0,94,0.00,,CLR,0.00,VWS V14.01,2013-07-10 12:00:00,
2013-07-10 05:05:00,52.2,50.5,28.85,South,180,0.0,0.0,94,0.00,,CLR,0.00,VWS V14.01,2013-07-10 12:05:00,
2013-07-10 05:10:00,52.2,50.5,28.82,South,180,0.0,0.0,94,0.00,,CLR,0.00,VWS V14.01,2013-07-10 12:10:00,
2013-07-10 05:15:00,52.2,50.5,28.82,South,180,0.0,0.0,94,0.00,,CLR,0.00,VWS V14.01,2013-07-10 12:15:00,
2013-07-10 05:20:00,52.2,50.5,28.82,South,180,0.0,0.0,94,0.00,,CLR,0.00,VWS V14.01,2013-07-10 12:20:00,
2013-07-10 05:25:00,52.2,50.5,28.82,South,180,0.0,0.0,94,0.00,,CLR,0.00,VWS V14.01,2013-07-10 12:25:00,
2013-07-10 05:30:00,52.2,50.5,28.82,South,180,0.0,0.0,94,0.00,,CLR,0.00,VWS V14.01,2013-07-10 12:30:00,
2013-07-10 05:35:00,52.2,50.5,28.82,South,180,0.0,0.0,94,0.00,,CLR,0.00,VWS V14.01,2013-07-10 12:35:00,
2013-07-10 05:40:00,52.2,50.5,28.82,South,180,0.0,0.0,94,0.00,,CLR,0.00,VWS V14.01,2013-07-10 12:40:00,
2013-07-10 05:45:00,52.2,50.5,28.82,South,180,0.0,0.0,94,0.00,,CLR,0.00,VWS V14.01,2013-07-10 12:45:00,
2013-07-10 05:49:00,52.2,50.5,28.82,South,180,0.0,0.0,94,0.00,,CLR,0.00,VWS V14.01,2013-07-10 12:49:00,
2013-07-10 05:54:00,52.2,50.5,28.85,South,180,0.0,0.0,94,0.00,,CLR,0.00,VWS V14.01,2013-07-10 12:54:00,
2013-07-10 05:59:00,52.2,50.5,28.85,South,180,0.0,0.0,94,0.00,,CLR,0.00,VWS V14.01,2013-07-10 12:59:00,
2013-07-10 06:00:00,52.2,50.5,28.85,South,180,0.0,0.0,94,0.00,,-RA,0.00,VWS V14.01,2013-07-10 13:00:00,
2013-07-10 06:04:00,52.2,50.5,28.85,South,180,0.0,0.0,94,0.00,,FEW013,0.00,VWS V14.01,2013-07-10 13:04:00,
2013-07-10 06:09:00,52.2,50.5,28.85,South,180,0.0,0.0,94,0.00,,FEW013,0.00,VWS V14.01,2013-07-10 13:09:00,
2013-07-10 06:14:00,52.2,50.5,28.85,South,180,0.0,0.0,94,0.00,,FEW013,0.00,VWS V14.01,2013-07-10 13:14:00,
2013-07-10 06:19:00,52.2,50.5,28.85,South,180,0.0,0.0,94,0.00,,FEW013,0.00,VWS V14.01,2013-07-10 13:19:00,
2013-07-10 06:24:00,52.2,50.5,28.85,South,180,0.0,0.0,94,0.00,,FEW013,0.00,VWS V14.01,2013-07-10 13:24:00,
2013-07-10 06:29:00,52.2,50.5,28.85,South,180,0.0,0.0,94,0.00,,FEW013,0.00,VWS V14.01,2013-07-10 13:29:00,
2013-07-10 06:30:00,52.2,50.5,28.82,South,180,0.0,0.0,94,0.00,,-RA,0.00,VWS V14.01,2013-07-10 13:30:00,
2013-07-10 06:34:00,52.2,50.5,28.85,SSW,202,0.0,0.0,94,0.00,,FEW013,0.00,VWS V14.01,2013-07-10 13:34:00,
2013-07-10 06:39:00,52.2,50.5,28.85,SSW,202,0.0,0.0,94,0.00,,FEW013,0.00,VWS V14.01,2013-07-10 13:39:00,
2013-07-10 06:44:00,52.2,50.5,28.85,SSW,202,0.0,0.0,94,0.00,,FEW013,0.00,VWS V14.01,2013-07-10 13:44:00,
2013-07-10 06:49:00,52.2,50.5,28.85,SSW,202,0.0,0.0,94,0.00,,FEW013,0.00,VWS V14.01,2013-07-10 13:49:00,
2013-07-10 06:54:00,52.2,50.5,28.85,SSW,202,0.0,0.0,94,0.00,,FEW013,0.00,VWS V14.01,2013-07-10 13:54:00,
2013-07-10 06:59:00,51.4,50.9,28.85,SSW,202,0.0,0.0,98,0.00,,FEW013,0.00,VWS V14.01,2013-07-10 13:59:00,
2013-07-10 07:00:00,52.2,50.5,28.85,South,180,0.0,0.0,94,0.00,,-RA,0.00,VWS V14.01,2013-07-10 14:00:00,
2013-07-10 07:04:00,54.5,54.0,28.85,SSW,202,0.0,0.0,98,0.00,,FEW013,0.00,VWS V14.01,2013-07-10 14:04:00,
2013-07-10 07:09:00,56.8,56.0,28.85,SSW,202,0.0,0.0,97,0.00,,FEW013,0.00,VWS V14.01,2013-07-10 14:09:00,
2013-07-10 07:14:00,58.3,57.4,28.85,SSW,202,0.0,0.0,97,0.00,,FEW013,0.00,VWS V14.01,2013-07-10 14:14:00,
2013-07-10 07:19:00,58.3,57.4,28.85,SSE,158,0.0,0.0,97,0.00,,FEW013,0.00,VWS V14.01,2013-07-10 14:19:00,
2013-07-10 07:24:00,62.4,60.7,28.85,SSE,158,0.0,0.0,94,0.00,,FEW013,0.00,VWS V14.01,2013-07-10 14:24:00,
2013-07-10 07:29:00,63.7,61.3,28.85,SSE,158,0.0,0.0,92,0.00,,FEW013,0.00,VWS V14.01,2013-07-10 14:29:00,
2013-07-10 07:30:00,52.2,50.5,28.85,South,180,0.0,0.0,94,0.00,,-RA,0.00,VWS V14.01,2013-07-10 14:30:00,
2013-07-10 07:34:00,64.9,60.3,28.85,SSE,158,0.0,0.0,85,0.00,,SCT013,0.00,VWS V14.01,2013-07-10 14:34:00,
2013-07-10 07:39:00,65.8,58.4,28.85,East,90,0.0,0.0,77,0.00,,SCT013,0.00,VWS V14.01,2013-07-10 14:39:00,
2013-07-10 07:44:00,65.1,54.7,28.85,NE,45,3.6,3.6,69,0.00,,SCT013,0.00,VWS V14.01,2013-07-10 14:44:00,
2013-07-10 07:49:00,64.9,54.1,28.85,NE,45,3.8,3.8,68,0.00,,SCT013,0.00,VWS V14.01,2013-07-10 14:49:00,
2013-07-10 07:54:00,65.1,53.1,28.85,NNW,338,3.4,3.4,65,0.00,,SCT013,0.00,VWS V14.01,2013-07-10 14:54:00,
2013-07-10 07:59:00,66.0,54.8,28.88,NNW,338,2.7,2.7,67,0.00,,SCT013,0.00,VWS V14.01,2013-07-10 14:59:00,
2013-07-10 08:04:00,66.7,55.5,28.88,North,0,2.9,2.9,67,0.00,,BKN015,0.00,VWS V14.01,2013-07-10 15:04:00,
2013-07-10 08:09:00,66.7,54.2,28.88,NE,45,3.4,3.4,64,0.00,,BKN015,0.00,VWS V14.01,2013-07-10 15:09:00,
2013-07-10 08:14:00,66.4,53.4,28.88,NE,45,3.8,3.8,63,0.00,,BKN015,0.00,VWS V14.01,2013-07-10 15:14:00,
2013-07-10 08:19:00,66.7,53.8,28.88,NNE,22,3.1,3.1,63,0.00,,BKN015,0.00,VWS V14.01,2013-07-10 15:19:00,
2013-07-10 08:24:00,67.1,54.5,28.88,NNE,22,2.9,2.9,64,0.00,,BKN015,0.00,VWS V14.01,2013-07-10 15:24:00,
2013-07-10 08:29:00,68.2,55.1,28.88,NNW,338,1.3,1.3,63,0.00,,BKN015,0.00,VWS V14.01,2013-07-10 15:29:00,
2013-07-10 08:34:00,68.5,54.6,28.88,NE,45,2.5,2.5,61,0.00,,BKN019,0.00,VWS V14.01,2013-07-10 15:34:00,
2013-07-10 08:39:00,67.8,53.0,28.88,NNE,22,4.3,4.3,59,0.00,,BKN019,0.00,VWS V14.01,2013-07-10 15:39:00,
2013-07-10 08:44:00,67.8,53.0,28.88,NE,45,2.5,2.5,59,0.00,,BKN019,0.00,VWS V14.01,2013-07-10 15:44:00,
2013-07-10 08:49:00,68.2,53.8,28.88,NE,45,4.5,4.5,60,0.00,,BKN019,0.00,VWS V14.01,2013-07-10 15:49:00,
2013-07-10 08:54:00,68.7,53.8,28.88,WNW,292,4.3,4.3,59,0.00,,BKN019,0.00,VWS V14.01,2013-07-10 15:54:00,
2013-07-10 08:59:00,70.2,54.7,28.88,West,270,2.0,2.0,58,0.00,,BKN019,0.00,VWS V14.01,2013-07-10 15:59:00,
2013-07-10 09:00:00,66.2,54.9,28.88,NNE,22,2.0,2.0,67,0.00,,-RA,0.00,VWS V14.01,2013-07-10 16:00:00,
2013-07-10 09:04:00,70.9,54.4,28.88,West,270,3.1,3.1,56,0.00,,OVC019,0.00,VWS V14.01,2013-07-10 16:04:00,
2013-07-10 09:09:00,72.0,55.4,28.85,South,180,3.4,3.4,56,0.00,,OVC019,0.00,VWS V14.01,2013-07-10 16:09:00,
2013-07-10 09:14:00,73.2,56.1,28.85,SW,225,1.6,1.6,55,0.00,,OVC019,0.00,VWS V14.01,2013-07-10 16:14:00,
2013-07-10 09:19:00,73.0,54.9,28.85,WNW,292,3.1,3.1,53,0.00,,OVC019,0.00,VWS V14.01,2013-07-10 16:19:00,
2013-07-10 09:24:00,73.0,54.4,28.85,SW,225,4.3,4.3,52,0.00,,OVC019,0.00,VWS V14.01,2013-07-10 16:24:00,
2013-07-10 09:29:00,73.2,55.1,28.85,NE,45,2.7,2.7,53,0.00,,OVC019,0.00,VWS V14.01,2013-07-10 16:29:00,
2013-07-10 09:30:00,68.2,55.1,28.88,ENE,68,3.4,3.4,63,0.00,,-RA,0.00,VWS V14.01,2013-07-10 16:30:00,
2013-07-10 09:34:00,71.4,53.9,28.85,NE,45,3.6,3.6,54,0.00,,BKN019,0.00,VWS V14.01,2013-07-10 16:34:00,
2013-07-10 09:39:00,72.0,54.9,28.85,NNE,22,2.7,2.7,55,0.00,,BKN019,0.00,VWS V14.01,2013-07-10 16:39:00,
2013-07-10 09:44:00,72.9,55.8,28.85,NE,45,3.6,3.6,55,0.00,,BKN019,0.00,VWS V14.01,2013-07-10 16:44:00,
2013-07-10 09:49:00,73.2,55.6,28.85,SSE,158,2.2,2.2,54,0.00,,BKN019,0.00,VWS V14.01,2013-07-10 16:49:00,
2013-07-10 09:54:00,73.2,55.6,28.85,North,0,4.3,4.3,54,0.00,,BKN019,0.00,VWS V14.01,2013-07-10 16:54:00,
2013-07-10 09:59:00,72.5,54.9,28.85,NW,315,5.4,5.4,54,0.00,,BKN019,0.00,VWS V14.01,2013-07-10 16:59:00,
2013-07-10 10:00:00,70.3,54.9,28.88,North,0,2.5,2.5,58,0.00,,-RA,0.00,VWS V14.01,2013-07-10 17:00:00,
2013-07-10 10:04:00,73.0,54.4,28.85,WNW,292,4.3,4.3,52,0.00,,OVC019,0.00,VWS V14.01,2013-07-10 17:04:00,
2013-07-10 10:09:00,73.8,54.0,28.85,NE,45,3.8,3.8,50,0.00,,OVC019,0.00,VWS V14.01,2013-07-10 17:09:00,
2013-07-10 10:14:00,73.8,54.0,28.85,NNE,22,4.0,4.0,50,0.00,,OVC019,0.00,VWS V14.01,2013-07-10 17:14:00,
2013-07-10 10:19:00,73.6,53.8,28.85,SW,225,2.2,2.2,50,0.00,,OVC019,0.00,VWS V14.01,2013-07-10 17:19:00,
2013-07-10 10:24:00,74.3,54.5,28.85,WSW,248,5.8,5.8,50,0.00,,OVC019,0.00,VWS V14.01,2013-07-10 17:24:00,
2013-07-10 10:29:00,74.7,56.4,28.85,NE,45,2.5,2.5,53,0.00,,OVC019,0.00,VWS V14.01,2013-07-10 17:29:00,
2013-07-10 10:30:00,72.9,54.8,28.85,NNW,338,4.3,4.3,53,0.00,,-RA,0.00,VWS V14.01,2013-07-10 17:30:00,
2013-07-10 10:34:00,73.4,53.7,28.85,NE,45,1.6,1.6,50,0.00,,OVC021,0.00,VWS V14.01,2013-07-10 17:34:00,
2013-07-10 10:39:00,73.6,55.4,28.85,West,270,2.7,2.7,53,0.00,,OVC021,0.00,VWS V14.01,2013-07-10 17:39:00,
2013-07-10 10:44:00,74.3,55.0,28.85,West,270,2.5,2.5,51,0.00,,OVC021,0.00,VWS V14.01,2013-07-10 17:44:00,
2013-07-10 10:49:00,75.0,56.2,28.85,ENE,68,3.1,3.1,52,0.00,,OVC021,0.00,VWS V14.01,2013-07-10 17:49:00,
2013-07-10 10:54:00,74.1,54.9,28.85,NE,45,1.6,1.6,51,0.00,,OVC021,0.00,VWS V14.01,2013-07-10 17:54:00,
2013-07-10 10:59:00,75.4,55.5,28.85,NNW,338,2.7,2.7,50,0.00,,OVC021,0.00,VWS V14.01,2013-07-10 17:59:00,
2013-07-10 11:00:00,72.5,54.4,28.85,North,0,3.6,3.6,53,0.00,,-RA,0.00,VWS V14.01,2013-07-10 18:00:00,
2013-07-10 11:04:00,75.2,54.8,28.85,West,270,2.7,2.7,49,0.00,,OVC021,0.00,VWS V14.01,2013-07-10 18:04:00,
2013-07-10 11:09:00,75.0,55.7,28.85,North,0,3.4,3.4,51,0.00,,OVC021,0.00,VWS V14.01,2013-07-10 18:09:00,
2013-07-10 11:14:00,76.3,56.3,28.85,WSW,248,4.3,4.3,50,0.00,,OVC021,0.00,VWS V14.01,2013-07-10 18:14:00,
2013-07-10 11:19:00,77.2,56.6,28.85,North,0,1.6,1.6,49,0.00,,OVC021,0.00,VWS V14.01,2013-07-10 18:19:00,
2013-07-10 11:24:00,76.8,56.2,28.85,NNW,338,2.9,2.9,49,0.00,,OVC021,0.00,VWS V14.01,2013-07-10 18:24:00,
2013-07-10 11:29:00,76.3,55.7,28.85,East,90,1.6,1.6,49,0.00,,OVC021,0.00,VWS V14.01,2013-07-10 18:29:00,
2013-07-10 11:30:00,74.3,55.0,28.85,North,0,4.7,4.7,51,0.00,,-RA,0.00,VWS V14.01,2013-07-10 18:30:00,
2013-07-10 11:34:00,76.5,57.5,28.85,SSW,202,0.9,0.9,52,0.00,,OVC021,0.00,VWS V14.01,2013-07-10 18:34:00,
2013-07-10 11:39:00,76.6,56.1,28.82,SW,225,4.3,4.3,49,0.00,,OVC021,0.00,VWS V14.01,2013-07-10 18:39:00,
2013-07-10 11:44:00,76.5,55.3,28.82,WSW,248,2.0,2.0,48,0.00,,OVC021,0.00,VWS V14.01,2013-07-10 18:44:00,
2013-07-10 11:49:00,77.4,56.2,28.82,WNW,292,2.5,2.5,48,0.00,,OVC021,0.00,VWS V14.01,2013-07-10 18:49:00,
2013-07-10 11:53:00,77.4,56.7,28.82,NW,315,3.8,3.8,49,0.00,,OVC021,0.00,VWS V14.01,2013-07-10 18:53:00,
2013-07-10 11:58:00,76.5,55.3,28.82,WSW,248,1.3,1.3,48,0.00,,OVC021,0.00,VWS V14.01,2013-07-10 18:58:00,
2013-07-10 12:00:00,75.6,56.2,28.85,ESE,112,2.5,2.5,51,0.00,,-RA,0.00,VWS V14.01,2013-07-10 19:00:00,
2013-07-10 12:03:00,77.2,55.4,28.82,NNW,338,2.7,2.7,47,0.00,,CLR,0.00,VWS V14.01,2013-07-10 19:03:00,
2013-07-10 12:08:00,76.6,55.5,28.82,NNW,338,1.3,1.3,48,0.00,,CLR,0.00,VWS V14.01,2013-07-10 19:08:00,
2013-07-10 12:13:00,78.3,57.5,28.82,WSW,248,1.3,1.3,49,0.00,,CLR,0.00,VWS V14.01,2013-07-10 19:13:00,
2013-07-10 12:18:00,77.4,56.2,28.82,NE,45,4.7,4.7,48,0.00,,CLR,0.00,VWS V14.01,2013-07-10 19:18:00,
2013-07-10 12:23:00,75.4,55.5,28.82,NNE,22,3.4,3.4,50,0.00,,CLR,0.00,VWS V14.01,2013-07-10 19:23:00,
2013-07-10 12:28:00,74.7,55.3,28.82,NNE,22,6.5,6.5,51,0.00,,CLR,0.00,VWS V14.01,2013-07-10 19:28:00,
2013-07-10 12:30:00,76.3,55.7,28.85,South,180,4.7,4.7,49,0.00,,-RA,0.00,VWS V14.01,2013-07-10 19:30:00,
2013-07-10 12:33:00,74.1,55.4,28.82,NNE,22,5.8,5.8,52,0.00,,CLR,0.00,VWS V14.01,2013-07-10 19:33:00,
2013-07-10 12:38:00,75.0,55.7,28.82,NNE,22,6.0,6.0,51,0.00,,CLR,0.00,VWS V14.01,2013-07-10 19:38:00,
2013-07-10 12:43:00,74.7,55.9,28.82,NW,315,4.9,4.9,52,0.00,,CLR,0.00,VWS V14.01,2013-07-10 19:43:00,
2013-07-10 12:48:00,74.7,55.9,28.82,NNE,22,3.8,3.8,52,0.00,,CLR,0.00,VWS V14.01,2013-07-10 19:48:00,
2013-07-10 12:53:00,75.6,56.2,28.82,NNE,22,3.1,3.1,51,0.00,,CLR,0.00,VWS V14.01,2013-07-10 19:53:00,
2013-07-10 12:58:00,77.5,57.5,28.82,NNE,22,1.3,1.3,50,0.00,,CLR,0.00,VWS V14.01,2013-07-10 19:58:00,
2013-07-10 13:00:00,76.8,56.2,28.82,South,180,3.8,3.8,49,0.00,,-RA,0.00,VWS V14.01,2013-07-10 20:00:00,
2013-07-10 13:03:00,78.6,57.3,28.82,ESE,112,3.1,3.1,48,0.00,,CLR,0.00,VWS V14.01,2013-07-10 20:03:00,
2013-07-10 13:08:00,79.0,56.5,28.79,SSW,202,3.8,3.8,46,0.00,,CLR,0.00,VWS V14.01,2013-07-10 20:08:00,
2013-07-10 13:13:00,79.0,56.5,28.79,SSW,202,1.6,1.6,46,0.00,,CLR,0.00,VWS V14.01,2013-07-10 20:13:00,
2013-07-10 13:18:00,79.2,56.6,28.79,NE,45,2.0,2.0,46,0.00,,CLR,0.00,VWS V14.01,2013-07-10 20:18:00,
2013-07-10 13:23:00,78.6,56.1,28.76,West,270,4.0,4.0,46,0.00,,CLR,0.00,VWS V14.01,2013-07-10 20:23:00,
2013-07-10 13:28:00,79.0,55.8,28.76,West,270,3.8,3.8,45,0.00,,CLR,0.00,VWS V14.01,2013-07-10 20:28:00,
2013-07-10 13:30:00,73.9,54.2,28.82,North,0,6.0,6.0,50,0.00,,-RA,0.00,VWS V14.01,2013-07-10 20:30:00,
2013-07-10 13:33:00,79.2,56.0,28.76,South,180,3.8,3.8,45,0.00,,CLR,0.00,VWS V14.01,2013-07-10 20:33:00,
2013-07-10 13:38:00,79.7,55.9,28.76,North,0,5.4,5.4,44,0.00,,CLR,0.00,VWS V14.01,2013-07-10 20:38:00,
2013-07-10 13:43:00,79.9,56.0,28.76,SSW,202,10.1,10.1,44,0.00,,CLR,0.00,VWS V14.01,2013-07-10 20:43:00,
2013-07-10 13:48:00,80.8,56.9,28.76,SSE,158,2.9,2.9,44,0.00,,CLR,0.00,VWS V14.01,2013-07-10 20:48:00,
2013-07-10 13:53:00,80.2,55.7,28.76,SE,135,2.7,2.7,43,0.00,,CLR,0.00,VWS V14.01,2013-07-10 20:53:00,
2013-07-10 13:58:00,80.2,55.1,28.76,West,270,2.5,2.5,42,0.00,,CLR,0.00,VWS V14.01,2013-07-10 20:58:00,
2013-07-10 14:00:00,77.7,58.2,28.82,SE,135,4.0,4.0,51,0.00,,-RA,0.00,VWS V14.01,2013-07-10 21:00:00,
2013-07-10 14:03:00,80.6,55.4,28.76,SSW,202,5.4,5.4,42,0.00,,CLR,0.00,VWS V14.01,2013-07-10 21:03:00,
2013-07-10 14:08:00,81.0,55.7,28.76,SE,135,2.5,2.5,42,0.00,,CLR,0.00,VWS V14.01,2013-07-10 21:08:00,
2013-07-10 14:13:00,81.7,56.4,28.76,West,270,2.7,2.7,42,0.00,,CLR,0.00,VWS V14.01,2013-07-10 21:13:00,
2013-07-10 14:18:00,81.5,55.5,28.76,ESE,112,8.1,8.1,41,0.00,,CLR,0.00,VWS V14.01,2013-07-10 21:18:00,
2013-07-10 14:23:00,82.0,56.0,28.76,WSW,248,2.7,2.7,41,0.00,,CLR,0.00,VWS V14.01,2013-07-10 21:23:00,
2013-07-10 14:28:00,81.7,55.0,28.76,SSW,202,5.6,5.6,40,0.00,,CLR,0.00,VWS V14.01,2013-07-10 21:28:00,
2013-07-10 14:30:00,79.2,56.0,28.76,South,180,3.4,3.4,45,0.00,,-RA,0.00,VWS V14.01,2013-07-10 21:30:00,
2013-07-10 14:33:00,81.3,54.7,28.76,SW,225,3.6,3.6,40,0.00,,CLR,0.00,VWS V14.01,2013-07-10 21:33:00,
2013-07-10 14:38:00,81.5,55.5,28.76,SSW,202,3.8,3.8,41,0.00,,CLR,0.00,VWS V14.01,2013-07-10 21:38:00,
2013-07-10 14:43:00,80.1,54.3,28.76,North,0,6.0,6.0,41,0.00,,CLR,0.00,VWS V14.01,2013-07-10 21:43:00,
2013-07-10 14:48:00,80.4,54.6,28.76,East,90,5.8,5.8,41,0.00,,CLR,0.00,VWS V14.01,2013-07-10 21:48:00,
2013-07-10 14:53:00,79.9,54.1,28.76,SSW,202,7.6,7.6,41,0.00,,CLR,0.00,VWS V14.01,2013-07-10 21:53:00,
2013-07-10 14:58:00,80.2,53.8,28.76,SW,225,6.3,6.3,40,0.00,,CLR,0.00,VWS V14.01,2013-07-10 21:58:00,
2013-07-10 15:03:00,81.1,55.2,28.76,SSW,202,5.4,5.4,41,0.00,,CLR,0.00,VWS V14.01,2013-07-10 22:03:00,
2013-07-10 15:08:00,81.7,55.7,28.76,East,90,3.4,3.4,41,0.00,,CLR,0.00,VWS V14.01,2013-07-10 22:08:00,
2013-07-10 15:13:00,79.9,53.4,28.76,West,270,6.0,6.0,40,0.00,,CLR,0.00,VWS V14.01,2013-07-10 22:13:00,
2013-07-10 15:18:00,79.9,53.4,28.76,SSW,202,3.1,3.1,40,0.00,,CLR,0.00,VWS V14.01,2013-07-10 22:18:00,
2013-07-10 15:23:00,80.1,53.6,28.76,SSE,158,6.3,6.3,40,0.00,,CLR,0.00,VWS V14.01,2013-07-10 22:23:00,
2013-07-10 15:28:00,80.1,53.6,28.76,East,90,4.7,4.7,40,0.00,,CLR,0.00,VWS V14.01,2013-07-10 22:28:00,
2013-07-10 15:30:00,81.7,55.0,28.76,SSE,158,5.6,5.6,40,0.00,,-RA,0.00,VWS V14.01,2013-07-10 22:30:00,
2013-07-10 15:33:00,80.1,54.3,28.76,SW,225,4.9,4.9,41,0.00,,CLR,0.00,VWS V14.01,2013-07-10 22:33:00,
2013-07-10 15:38:00,80.2,53.8,28.76,SSW,202,8.5,8.5,40,0.00,,CLR,0.00,VWS V14.01,2013-07-10 22:38:00,
2013-07-10 15:43:00,80.8,54.2,28.76,SSW,202,1.6,1.6,40,0.00,,CLR,0.00,VWS V14.01,2013-07-10 22:43:00,
2013-07-10 15:48:00,79.9,53.4,28.76,WNW,292,2.7,2.7,40,0.00,,CLR,0.00,VWS V14.01,2013-07-10 22:48:00,
2013-07-10 15:53:00,80.4,53.9,28.73,WSW,248,4.0,4.0,40,0.00,,CLR,0.00,VWS V14.01,2013-07-10 22:53:00,
2013-07-10 15:58:00,80.2,53.8,28.73,SE,135,3.8,3.8,40,0.00,,CLR,0.00,VWS V14.01,2013-07-10 22:58:00,
2013-07-10 16:00:00,80.2,53.8,28.76,WNW,292,5.6,5.6,40,0.00,,-RA,0.00,VWS V14.01,2013-07-10 23:00:00,
2013-07-10 16:03:00,80.1,53.6,28.73,SSW,202,2.9,2.9,40,0.00,,CLR,0.00,VWS V14.01,2013-07-10 23:03:00,
2013-07-10 16:08:00,79.7,51.9,28.73,NE,45,3.6,3.6,38,0.00,,CLR,0.00,VWS V14.01,2013-07-10 23:08:00,
2013-07-10 16:13:00,79.3,53.0,28.73,SSW,202,6.0,6.0,40,0.00,,CLR,0.00,VWS V14.01,2013-07-10 23:13:00,
2013-07-10 16:18:00,79.3,52.3,28.73,SW,225,5.4,5.4,39,0.00,,CLR,0.00,VWS V14.01,2013-07-10 23:18:00,
2013-07-10 16:23:00,80.1,52.9,28.73,ENE,68,3.6,3.6,39,0.00,,CLR,0.00,VWS V14.01,2013-07-10 23:23:00,
2013-07-10 16:28:00,80.2,53.1,28.73,SSE,158,1.6,1.6,39,0.00,,CLR,0.00,VWS V14.01,2013-07-10 23:28:00,
2013-07-10 16:30:00,80.2,53.8,28.76,WSW,248,5.4,5.4,40,0.00,,-RA,0.00,VWS V14.01,2013-07-10 23:30:00,
2013-07-10 16:33:00,80.2,53.1,28.73,SSW,202,3.6,3.6,39,0.00,,CLR,0.00,VWS V14.01,2013-07-10 23:33:00,
2013-07-10 16:38:00,80.1,52.9,28.73,SW,225,2.9,2.9,39,0.00,,CLR,0.00,VWS V14.01,2013-07-10 23:38:00,
2013-07-10 16:43:00,79.5,52.4,28.73,SSW,202,5.8,5.8,39,0.00,,CLR,0.00,VWS V14.01,2013-07-10 23:43:00,
2013-07-10 16:48:00,79.7,53.3,28.73,West,270,8.5,8.5,40,0.00,,CLR,0.00,VWS V14.01,2013-07-10 23:48:00,
2013-07-10 16:53:00,79.3,53.0,28.73,SSE,158,3.1,3.1,40,0.00,,CLR,0.00,VWS V14.01,2013-07-10 23:53:00,
2013-07-10 16:58:00,79.0,52.6,28.73,SSW,202,3.1,3.1,40,0.00,,CLR,0.00,VWS V14.01,2013-07-10 23:58:00,
2013-07-10 17:00:00,80.4,53.9,28.73,SW,225,4.0,4.0,40,0.00,,-RA,0.00,VWS V14.01,2013-07-11 00:00:00,
2013-07-10 17:03:00,79.3,53.0,28.73,SE,135,2.5,2.5,40,0.00,,CLR,0.00,VWS V14.01,2013-07-11 00:03:00,
2013-07-10 17:08:00,78.4,52.1,28.73,North,0,2.9,2.9,40,0.00,,CLR,0.00,VWS V14.01,2013-07-11 00:08:00,
2013-07-10 17:13:00,78.3,52.7,28.73,SSE,158,4.9,4.9,41,0.00,,CLR,0.00,VWS V14.01,2013-07-11 00:13:00,
2013-07-10 17:18:00,78.4,52.8,28.73,NNW,338,3.1,3.1,41,0.00,,CLR,0.00,VWS V14.01,2013-07-11 00:18:00,
2013-07-10 17:23:00,78.4,52.8,28.73,NE,45,2.9,2.9,41,0.00,,CLR,0.00,VWS V14.01,2013-07-11 00:23:00,
2013-07-10 17:28:00,78.6,53.0,28.73,ESE,112,3.4,3.4,41,0.00,,CLR,0.00,VWS V14.01,2013-07-11 00:28:00,
2013-07-10 17:30:00,80.4,52.5,28.73,SSW,202,6.5,6.5,38,0.00,,-RA,0.00,VWS V14.01,2013-07-11 00:30:00,
2013-07-10 17:33:00,78.4,52.8,28.73,SW,225,6.0,6.0,41,0.00,,CLR,0.00,VWS V14.01,2013-07-11 00:33:00,
2013-07-10 17:38:00,79.0,52.6,28.73,SSE,158,13.6,13.6,40,0.00,,CLR,0.00,VWS V14.01,2013-07-11 00:38:00,
2013-07-10 17:43:00,77.9,51.7,28.73,ESE,112,2.9,2.9,40,0.00,,CLR,0.00,VWS V14.01,2013-07-11 00:43:00,
2013-07-10 17:48:00,77.5,51.3,28.73,NW,315,4.3,4.3,40,0.00,,CLR,0.00,VWS V14.01,2013-07-11 00:48:00,
2013-07-10 17:53:00,77.5,51.3,28.70,NNE,22,4.9,4.9,40,0.00,,CLR,0.00,VWS V14.01,2013-07-11 00:53:00,
2013-07-10 17:58:00,76.6,51.2,28.70,SSW,202,1.6,1.6,41,0.00,,CLR,0.00,VWS V14.01,2013-07-11 00:58:00,
2013-07-10 18:00:00,79.2,52.8,28.73,NNW,338,6.3,6.3,40,0.00,,-RA,0.00,VWS V14.01,2013-07-11 01:00:00,
2013-07-10 18:03:00,77.0,51.5,28.70,NNE,22,3.1,3.1,41,0.00,,CLR,0.00,VWS V14.01,2013-07-11 01:03:00,
2013-07-10 18:08:00,77.0,50.9,28.70,SW,225,3.1,3.1,40,0.00,,CLR,0.00,VWS V14.01,2013-07-11 01:08:00,
2013-07-10 18:13:00,77.0,50.9,28.70,West,270,2.5,2.5,40,0.00,,CLR,0.00,VWS V14.01,2013-07-11 01:13:00,
2013-07-10 18:18:00,76.1,50.7,28.70,WNW,292,3.8,3.8,41,0.00,,CLR,0.00,VWS V14.01,2013-07-11 01:18:00,
2013-07-10 18:23:00,76.3,50.9,28.70,NNW,338,5.8,5.8,41,0.00,,CLR,0.00,VWS V14.01,2013-07-11 01:23:00,
2013-07-10 18:28:00,76.1,50.7,28.70,West,270,2.5,2.5,41,0.00,,CLR,0.00,VWS V14.01,2013-07-11 01:28:00,
2013-07-10 18:30:00,78.3,52.7,28.73,WSW,248,5.6,5.6,41,0.00,,-RA,0.00,VWS V14.01,2013-07-11 01:30:00,
2013-07-10 18:33:00,75.9,50.5,28.70,SSW,202,4.3,4.3,41,0.00,,CLR,0.00,VWS V14.01,2013-07-11 01:33:00,
2013-07-10 18:38:00,75.4,50.1,28.70,South,180,2.7,2.7,41,0.00,,CLR,0.00,VWS V14.01,2013-07-11 01:38:00,
2013-07-10 18:43:00,75.2,49.2,28.70,SE,135,3.6,3.6,40,0.00,,CLR,0.00,VWS V14.01,2013-07-11 01:43:00,
2013-07-10 18:48:00,74.8,48.9,28.70,East,90,2.0,2.0,40,0.00,,CLR,0.00,VWS V14.01,2013-07-11 01:48:00,
2013-07-10 18:53:00,74.3,48.4,28.70,NNW,338,3.1,3.1,40,0.00,,CLR,0.00,VWS V14.01,2013-07-11 01:53:00,
2013-07-10 18:58:00,73.8,47.3,28.70,West,270,4.3,4.3,39,0.00,,CLR,0.00,VWS V14.01,2013-07-11 01:58:00,
2013-07-10 19:00:00,77.2,51.7,28.70,South,180,4.9,4.9,41,0.00,,-RA,0.00,VWS V14.01,2013-07-11 02:00:00,
2013-07-10 19:03:00,73.9,48.8,28.70,NE,45,1.1,1.1,41,0.00,,CLR,0.00,VWS V14.01,2013-07-11 02:03:00,
2013-07-10 19:08:00,73.0,47.3,28.73,SSW,202,3.4,3.4,40,0.00,,CLR,0.00,VWS V14.01,2013-07-11 02:08:00,
2013-07-10 19:13:00,71.4,46.5,28.73,WSW,248,2.9,2.9,41,0.00,,CLR,0.00,VWS V14.01,2013-07-11 02:13:00,
2013-07-10 19:18:00,70.9,46.0,28.73,SE,135,2.5,2.5,41,0.00,,CLR,0.00,VWS V14.01,2013-07-11 02:18:00,
2013-07-10 19:23:00,70.0,45.2,28.73,WNW,292,3.4,3.4,41,0.00,,CLR,0.00,VWS V14.01,2013-07-11 02:23:00,
2013-07-10 19:28:00,69.3,45.2,28.73,SSE,158,2.2,2.2,42,0.00,,CLR,0.00,VWS V14.01,2013-07-11 02:28:00,
2013-07-10 19:30:00,76.1,50.7,28.70,NNW,338,3.6,3.6,41,0.00,,-RA,0.00,VWS V14.01,2013-07-11 02:30:00,
2013-07-10 19:33:00,68.7,44.7,28.73,SE,135,1.6,1.6,42,0.00,,CLR,0.00,VWS V14.01,2013-07-11 02:33:00,
2013-07-10 19:38:00,68.0,44.1,28.73,NNW,338,2.9,2.9,42,0.00,,CLR,0.00,VWS V14.01,2013-07-11 02:38:00,
2013-07-10 19:43:00,67.6,44.4,28.73,North,0,2.7,2.7,43,0.00,,CLR,0.00,VWS V14.01,2013-07-11 02:43:00,
2013-07-10 19:47:00,66.9,43.7,28.73,North,0,1.3,1.3,43,0.00,,CLR,0.00,VWS V14.01,2013-07-11 02:47:00,
2013-07-10 19:52:00,66.2,43.7,28.73,North,0,1.6,1.6,44,0.00,,CLR,0.00,VWS V14.01,2013-07-11 02:52:00,
2013-07-10 19:57:00,65.7,43.8,28.73,NNW,338,0.0,0.0,45,0.00,,CLR,0.00,VWS V14.01,2013-07-11 02:57:00,
2013-07-10 20:00:00,73.9,47.4,28.70,WSW,248,3.8,3.8,39,0.00,,-RA,0.00,VWS V14.01,2013-07-11 03:00:00,
2013-07-10 20:02:00,65.1,43.8,28.73,North,0,2.9,2.9,46,0.00,,CLR,0.00,VWS V14.01,2013-07-11 03:02:00,
2013-07-10 20:07:00,64.4,44.8,28.73,WSW,248,1.3,1.3,49,0.00,,CLR,0.00,VWS V14.01,2013-07-11 03:07:00,
2013-07-10 20:12:00,63.9,45.4,28.73,SSW,202,0.0,0.0,51,0.00,,CLR,0.00,VWS V14.01,2013-07-11 03:12:00,
2013-07-10 20:17:00,63.0,46.1,28.73,WSW,248,1.3,1.3,54,0.00,,CLR,0.00,VWS V14.01,2013-07-11 03:17:00,
2013-07-10 20:22:00,62.2,46.4,28.73,WSW,248,1.1,1.1,56,0.00,,CLR,0.00,VWS V14.01,2013-07-11 03:22:00,
2013-07-10 20:27:00,61.7,46.3,28.73,WSW,248,0.0,0.0,57,0.00,,CLR,0.00,VWS V14.01,2013-07-11 03:27:00,
2013-07-10 20:32:00,61.0,47.0,28.73,West,270,1.1,1.1,60,0.00,,CLR,0.00,VWS V14.01,2013-07-11 03:32:00,
2013-07-10 20:37:00,60.6,48.0,28.73,SSE,158,2.7,2.7,63,0.00,,CLR,0.00,VWS V14.01,2013-07-11 03:37:00,
2013-07-10 20:42:00,60.1,48.3,28.73,SW,225,0.0,0.0,65,0.00,,CLR,0.00,VWS V14.01,2013-07-11 03:42:00,
2013-07-10 20:47:00,59.7,47.5,28.73,WSW,248,0.9,0.9,64,0.00,,CLR,0.00,VWS V14.01,2013-07-11 03:47:00,
2013-07-10 20:52:00,59.5,47.8,28.73,SSW,202,1.1,1.1,65,0.00,,CLR,0.00,VWS V14.01,2013-07-11 03:52:00,
2013-07-10 20:57:00,59.2,47.8,28.73,NNW,338,2.9,2.9,66,0.00,,CLR,0.00,VWS V14.01,2013-07-11 03:57:00,
2013-07-10 21:00:00,65.5,44.2,28.73,WSW,248,0.0,0.0,46,0.00,,-RA,0.00,VWS V14.01,2013-07-11 04:00:00,
2013-07-10 21:01:00,58.8,47.1,28.73,SSW,202,1.1,1.1,65,0.00,,CLR,0.00,VWS V14.01,2013-07-11 04:01:00,
2013-07-10 21:06:00,58.8,47.1,28.73,SSW,202,2.0,2.0,65,0.00,,CLR,0.00,VWS V14.01,2013-07-11 04:06:00,
2013-07-10 21:11:00,58.3,47.4,28.73,NW,315,2.0,2.0,67,0.00,,CLR,0.00,VWS V14.01,2013-07-11 04:11:00,
2013-07-10 21:16:00,58.1,47.2,28.73,WNW,292,2.2,2.2,67,0.00,,CLR,0.00,VWS V14.01,2013-07-11 04:16:00,
2013-07-10 21:21:00,57.9,47.0,28.73,NW,315,1.6,1.6,67,0.00,,CLR,0.00,VWS V14.01,2013-07-11 04:21:00,
2013-07-10 21:26:00,57.7,46.9,28.73,WNW,292,0.9,0.9,67,0.00,,CLR,0.00,VWS V14.01,2013-07-11 04:26:00,
2013-07-10 21:30:00,61.3,46.9,28.73,WSW,248,1.1,1.1,59,0.00,,-RA,0.00,VWS V14.01,2013-07-11 04:30:00,
2013-07-10 21:31:00,57.6,47.1,28.73,WNW,292,0.0,0.0,68,0.00,,CLR,0.00,VWS V14.01,2013-07-11 04:31:00,
2013-07-10 21:36:00,57.2,46.8,28.73,North,0,1.1,1.1,68,0.00,,CLR,0.00,VWS V14.01,2013-07-11 04:36:00,
2013-07-10 21:41:00,56.8,46.4,28.76,NW,315,1.6,1.6,68,0.00,,CLR,0.00,VWS V14.01,2013-07-11 04:41:00,
2013-07-10 21:46:00,56.7,46.6,28.76,West,270,1.6,1.6,69,0.00,,CLR,0.00,VWS V14.01,2013-07-11 04:46:00,
2013-07-10 21:51:00,56.7,46.6,28.76,WNW,292,2.7,2.7,69,0.00,,CLR,0.00,VWS V14.01,2013-07-11 04:51:00,
2013-07-10 21:56:00,56.1,46.9,28.76,SE,135,1.1,1.1,71,0.00,,CLR,0.00,VWS V14.01,2013-07-11 04:56:00,
2013-07-10 22:00:00,59.0,47.3,28.73,NW,315,1.3,1.3,65,0.00,,-RA,0.00,VWS V14.01,2013-07-11 05:00:00,
2013-07-10 22:01:00,56.1,46.9,28.76,WSW,248,2.0,2.0,71,0.00,,CLR,0.00,VWS V14.01,2013-07-11 05:01:00,
2013-07-10 22:06:00,56.1,46.9,28.76,West,270,1.1,1.1,71,0.00,,CLR,0.00,VWS V14.01,2013-07-11 05:06:00,
2013-07-10 22:11:00,56.1,46.9,28.76,SW,225,0.9,0.9,71,0.00,,CLR,0.00,VWS V14.01,2013-07-11 05:11:00,
2013-07-10 22:16:00,56.1,46.9,28.76,North,0,2.2,2.2,71,0.00,,CLR,0.00,VWS V14.01,2013-07-11 05:16:00,
2013-07-10 22:21:00,56.1,46.5,28.76,ENE,68,0.0,0.0,70,0.00,,CLR,0.00,VWS V14.01,2013-07-11 05:21:00,
2013-07-10 22:26:00,55.9,46.7,28.76,WNW,292,1.1,1.1,71,0.00,,CLR,0.00,VWS V14.01,2013-07-11 05:26:00,
2013-07-10 22:30:00,57.6,47.1,28.73,WNW,292,0.0,0.0,68,0.00,,-RA,0.00,VWS V14.01,2013-07-11 05:30:00,
2013-07-10 22:31:00,55.9,46.7,28.76,NNE,22,3.4,3.4,71,0.00,,CLR,0.00,VWS V14.01,2013-07-11 05:31:00,
2013-07-10 22:36:00,55.9,46.7,28.76,North,0,3.8,3.8,71,0.00,,CLR,0.00,VWS V14.01,2013-07-11 05:36:00,
2013-07-10 22:41:00,56.1,45.7,28.76,NNE,22,2.7,2.7,68,0.00,,CLR,0.00,VWS V14.01,2013-07-11 05:41:00,
2013-07-10 22:46:00,55.9,44.8,28.76,North,0,2.5,2.5,66,0.00,,CLR,0.00,VWS V14.01,2013-07-11 05:46:00,
2013-07-10 22:51:00,55.9,44.8,28.76,East,90,0.9,0.9,66,0.00,,CLR,0.00,VWS V14.01,2013-07-11 05:51:00,
2013-07-10 22:56:00,55.2,44.1,28.76,NNE,22,3.4,3.4,66,0.00,,CLR,0.00,VWS V14.01,2013-07-11 05:56:00,
2013-07-10 23:00:00,56.1,46.9,28.76,SSE,158,2.5,2.5,71,0.00,,-RA,0.00,VWS V14.01,2013-07-11 06:00:00,
2013-07-10 23:01:00,55.2,44.1,28.76,SSW,202,0.0,0.0,66,0.00,,CLR,0.00,VWS V14.01,2013-07-11 06:01:00,
2013-07-10 23:06:00,55.2,44.1,28.76,NNE,22,2.9,2.9,66,0.00,,CLR,0.00,VWS V14.01,2013-07-11 06:06:00,
2013-07-10 23:11:00,55.2,44.1,28.76,NNW,338,0.0,0.0,66,0.00,,CLR,0.00,VWS V14.01,2013-07-11 06:11:00,
2013-07-10 23:16:00,55.2,44.1,28.76,NNW,338,1.3,1.3,66,0.00,,CLR,0.00,VWS V14.01,2013-07-11 06:16:00,
2013-07-10 23:21:00,55.2,44.1,28.76,East,90,2.5,2.5,66,0.00,,CLR,0.00,VWS V14.01,2013-07-11 06:21:00,
2013-07-10 23:26:00,55.2,44.1,28.79,NNE,22,3.6,3.6,66,0.00,,CLR,0.00,VWS V14.01,2013-07-11 06:26:00,
2013-07-10 23:30:00,55.2,44.1,28.79,SSW,202,0.0,0.0,66,0.00,,CLR,0.00,VWS V14.01,2013-07-11 06:30:00,
2013-07-10 23:35:00,55.2,44.1,28.79,SSE,158,1.3,1.3,66,0.00,,CLR,0.00,VWS V14.01,2013-07-11 06:35:00,
2013-07-10 23:40:00,55.2,44.1,28.79,SSE,158,1.1,1.1,66,0.00,,CLR,0.00,VWS V14.01,2013-07-11 06:40:00,
2013-07-10 23:45:00,55.2,44.1,28.79,WSW,248,0.0,0.0,66,0.00,,CLR,0.00,VWS V14.01,2013-07-11 06:45:00,
2013-07-10 23:50:00,55.2,44.1,28.79,SSW,202,0.0,0.0,66,0.00,,CLR,0.00,VWS V14.01,2013-07-11 06:50:00,
2013-07-10 23:55:00,55.2,44.1,28.79,SSW,202,1.1,1.1,66,0.00,,CLR,0.00,VWS V14.01,2013-07-11 06:55:00,